Time;durP1;ratioP1;P1;durP2;ratioP2;P2;SDS_P1;SDS_P2;PMS_P1;PMS_P2;Temp;Humidity;BMP_temperature;BMP_pressure;BME280_temperature;BME280_humidity;BME280_pressure;Samples;Min_cycle;Max_cycle;Signal;HPM_P1;HPM_P2
2022/06/28 00:00:17;;;;;;;1.90;1.38;;;;;;;18.47;65.86;100273.88;4947387;28;20028;-93
2022/06/28 00:02:42;;;;;;;1.92;1.42;;;;;;;18.43;66.06;100267.94;4923636;29;20447;-93
2022/06/28 00:05:08;;;;;;;2.17;1.50;;;;;;;18.43;66.55;100264.38;4956550;28;20125;-93
2022/06/28 00:07:33;;;;;;;2.60;1.27;;;;;;;18.39;66.11;100266.63;4955848;28;20389;-93
2022/06/28 00:09:59;;;;;;;1.88;1.25;;;;;;;18.41;66.61;100269.16;4956956;28;20023;-93
2022/06/28 00:12:25;;;;;;;1.48;1.30;;;;;;;18.43;66.27;100265.22;4946210;28;20474;-92
2022/06/28 00:17:34;;;;;;;2.20;1.20;;;;;;;18.42;66.38;100268.97;4941576;29;20043;-93
2022/06/28 00:19:59;;;;;;;1.45;0.93;;;;;;;18.36;66.83;100264.28;4940749;29;20031;-93
2022/06/28 00:22:25;;;;;;;1.30;1.20;;;;;;;18.36;66.63;100260.72;4930137;29;20561;-92
2022/06/28 00:24:50;;;;;;;1.38;1.23;;;;;;;18.39;66.04;100258.50;4942371;28;20489;-93
2022/06/28 00:27:17;;;;;;;2.80;1.17;;;;;;;18.39;66.57;100255.78;4936046;29;20027;-92
2022/06/28 00:29:43;;;;;;;4.97;1.20;;;;;;;18.35;65.83;100249.06;4939309;29;20023;-93
2022/06/28 00:32:08;;;;;;;2.28;1.10;;;;;;;18.34;65.87;100254.66;4938239;29;20090;-92
2022/06/28 00:34:34;;;;;;;1.40;1.30;;;;;;;18.33;66.64;100259.22;4939268;29;20027;-92
2022/06/28 00:36:59;;;;;;;1.58;1.10;;;;;;;18.35;65.75;100250.91;4939716;29;20034;-93
2022/06/28 00:39:24;;;;;;;0.98;0.98;;;;;;;18.32;66.24;100257.53;4943143;28;20078;-93
2022/06/28 00:41:50;;;;;;;1.85;1.20;;;;;;;18.33;65.87;100248.38;4955557;28;20035;-92
2022/06/28 00:44:15;;;;;;;1.85;1.10;;;;;;;18.34;66.08;100252.78;4933365;29;20549;-92
2022/06/28 00:46:41;;;;;;;1.25;1.10;;;;;;;18.32;66.18;100254.84;4951293;28;20029;-92
2022/06/28 00:49:06;;;;;;;2.75;1.13;;;;;;;18.31;65.90;100258.56;4953526;28;20086;-92
2022/06/28 00:51:32;;;;;;;2.13;1.30;;;;;;;18.30;66.28;100258.75;4927163;29;20027;-93
2022/06/28 00:53:58;;;;;;;1.52;1.05;;;;;;;18.29;65.79;100255.19;4926709;29;20099;-92
2022/06/28 00:56:24;;;;;;;1.27;1.17;;;;;;;18.33;66.49;100255.66;4938200;28;20039;-93
2022/06/28 00:58:52;;;;;;;1.95;1.40;;;;;;;18.32;66.68;100259.41;4931681;29;20023;-92
2022/06/28 01:01:20;;;;;;;1.30;1.20;;;;;;;18.37;66.47;100249.72;4933282;29;20023;-93
2022/06/28 01:03:46;;;;;;;3.15;1.33;;;;;;;18.36;65.98;100253.44;4951527;28;20027;-92
2022/06/28 01:06:11;;;;;;;1.63;1.13;;;;;;;18.34;66.29;100252.78;4922202;29;20449;-92
2022/06/28 01:08:37;;;;;;;2.45;1.40;;;;;;;18.34;66.25;100257.34;4937304;28;20038;-93
2022/06/28 01:11:18;;;;;;;1.35;1.23;;;;;;;18.28;66.38;100264.34;4949323;28;20046;-93
2022/06/28 01:13:45;;;;;;;1.40;1.15;;;;;;;18.25;66.30;100260.13;4931581;29;20031;-92
2022/06/28 01:16:11;;;;;;;2.63;1.38;;;;;;;18.23;66.79;100264.88;4952808;28;20314;-92
2022/06/28 01:18:36;;;;;;;1.83;1.40;;;;;;;18.22;66.64;100260.50;4937182;29;20062;-92
2022/06/28 01:21:02;;;;;;;2.92;1.67;;;;;;;18.20;66.10;100262.53;4947826;29;20027;-93
2022/06/28 01:23:27;;;;;;;3.00;1.30;;;;;;;18.20;66.21;100267.09;4938379;29;20082;-91
2022/06/28 01:25:53;;;;;;;2.10;1.20;;;;;;;18.20;66.54;100267.94;4950677;28;20043;-92
2022/06/28 01:28:18;;;;;;;2.45;1.20;;;;;;;18.18;66.19;100267.28;4931108;29;20447;-93
2022/06/28 01:30:44;;;;;;;1.55;1.45;;;;;;;18.17;66.24;100257.47;4947033;28;20038;-92
2022/06/28 01:33:10;;;;;;;1.55;1.25;;;;;;;18.16;66.61;100260.38;4927009;29;20031;-92
2022/06/28 01:35:35;;;;;;;2.00;1.25;;;;;;;18.15;66.78;100261.41;4944950;29;20122;-92
2022/06/28 01:38:01;;;;;;;3.33;1.25;;;;;;;18.06;66.04;100267.88;4931604;29;20098;-92
2022/06/28 01:40:27;;;;;;;2.78;1.20;;;;;;;17.96;65.86;100272.66;4945894;28;20421;-92
2022/06/28 01:42:52;;;;;;;2.92;1.42;;;;;;;17.91;65.96;100278.59;4947684;29;20040;-92
2022/06/28 01:45:18;;;;;;;2.25;1.30;;;;;;;17.94;66.71;100281.78;4923674;29;20034;-92
2022/06/28 01:47:44;;;;;;;2.78;1.30;;;;;;;17.94;65.58;100281.78;4930155;29;20532;-92
2022/06/28 01:50:10;;;;;;;2.25;1.00;;;;;;;17.97;66.45;100288.72;4921848;29;20055;-92
2022/06/28 01:52:38;;;;;;;1.67;1.10;;;;;;;17.93;66.41;100282.81;4943662;29;20062;-93
2022/06/28 01:55:04;;;;;;;;;;;;;;;17.90;65.73;100294.00;4938584;29;20060;-93
2022/06/28 01:57:29;;;;;;;4.22;1.85;;;;;;;17.83;65.57;100289.47;4951285;29;20304;-92
2022/06/28 01:59:54;;;;;;;3.28;1.70;;;;;;;17.80;66.69;100289.81;4929632;29;20031;-93
2022/06/28 02:02:20;;;;;;;3.92;2.00;;;;;;;17.76;65.83;100296.59;4954597;28;20043;-93
2022/06/28 02:04:45;;;;;;;3.38;1.70;;;;;;;17.65;65.97;100292.41;4949609;28;20030;-92
2022/06/28 02:07:10;;;;;;;3.22;1.63;;;;;;;17.61;66.08;100301.88;4954261;28;20393;-93
2022/06/28 02:09:36;;;;;;;2.80;1.50;;;;;;;17.57;65.96;100297.84;4939393;28;20118;-93
2022/06/28 02:12:01;;;;;;;1.67;1.20;;;;;;;17.56;65.54;100301.56;4946161;28;20040;-92
2022/06/28 02:14:27;;;;;;;1.75;1.20;;;;;;;17.54;65.83;100303.59;4921692;29;20031;-92
2022/06/28 02:16:52;;;;;;;3.17;1.30;;;;;;;17.53;66.15;100304.63;4923653;29;20204;-93
2022/06/28 02:19:17;;;;;;;2.47;1.40;;;;;;;17.51;65.87;100304.78;4930733;29;20058;-92
2022/06/28 02:21:44;;;;;;;1.95;1.20;;;;;;;17.46;65.76;100307.16;4947900;28;20086;-92
2022/06/28 02:24:10;;;;;;;2.92;1.10;;;;;;;17.42;65.53;100305.81;4975187;28;20053;-93
2022/06/28 02:26:36;;;;;;;2.70;1.15;;;;;;;17.43;65.61;100306.66;4948834;28;20502;-92
2022/06/28 02:29:03;;;;;;;1.13;1.00;;;;;;;17.43;65.88;100304.78;4944523;28;20027;-92
2022/06/28 02:31:29;;;;;;;1.20;1.02;;;;;;;17.39;66.08;100302.59;4926774;29;20027;-93
2022/06/28 02:33:55;;;;;;;2.45;1.30;;;;;;;17.39;65.62;100306.16;4929212;29;20053;-92
2022/06/28 02:41:50;;;;;;;2.25;1.15;;;;;;;17.39;65.38;100316.13;4954161;29;20038;-93
2022/06/28 02:44:16;;;;;;;2.33;1.20;;;;;;;17.42;66.28;100327.44;4933531;28;20039;-92
2022/06/28 02:46:42;;;;;;;2.47;1.08;;;;;;;17.42;65.89;100330.16;4934638;28;20456;-92
2022/06/28 02:49:07;;;;;;;1.73;1.00;;;;;;;17.43;66.33;100334.53;4944546;28;20027;-92
2022/06/28 02:51:32;;;;;;;2.05;1.27;;;;;;;17.45;66.16;100337.91;4934909;29;20167;-93
2022/06/28 02:53:58;;;;;;;2.35;1.27;;;;;;;17.45;65.79;100337.91;4929739;28;20033;-92
2022/06/28 02:56:24;;;;;;;1.33;1.00;;;;;;;17.43;65.52;100345.34;4933060;28;20059;-93
2022/06/28 02:58:49;;;;;;;2.47;1.10;;;;;;;17.41;66.45;100344.69;4928658;28;20088;-93
2022/06/28 03:01:14;;;;;;;1.88;1.10;;;;;;;17.41;66.02;100351.94;4943118;28;20405;-92
2022/06/28 03:03:40;;;;;;;2.35;1.20;;;;;;;17.44;66.10;100347.03;4941562;28;20061;-93
2022/06/28 03:06:06;;;;;;;1.58;1.10;;;;;;;17.46;66.18;100352.28;4932873;29;20027;-93
2022/06/28 03:08:31;;;;;;;1.27;1.10;;;;;;;17.48;65.76;100355.66;4933102;29;20027;-92
2022/06/28 03:10:57;;;;;;;1.65;1.13;;;;;;;17.43;65.86;100353.47;4930008;28;20029;-92
2022/06/28 03:13:22;;;;;;;3.40;1.27;;;;;;;17.39;66.00;100362.09;4933342;28;20026;-92
2022/06/28 03:15:50;;;;;;;3.53;1.20;;;;;;;17.27;66.02;100356.19;4944672;28;20113;-93
2022/06/28 03:18:15;;;;;;;2.15;1.10;;;;;;;17.27;66.19;100353.50;4955390;28;20539;-92
2022/06/28 03:20:40;;;;;;;2.15;1.10;;;;;;;17.22;66.37;100351.31;4936113;28;20158;-93
2022/06/28 03:23:06;;;;;;;2.80;1.20;;;;;;;17.19;65.83;100353.50;5468043;23;20046;-92
2022/06/28 03:25:32;;;;;;;1.83;1.00;;;;;;;17.17;66.25;100358.25;4979984;28;20038;-93
2022/06/28 03:27:57;;;;;;;1.50;0.90;;;;;;;17.19;66.46;100362.47;4980005;28;20125;-93
2022/06/28 03:30:22;;;;;;;2.38;1.17;;;;;;;17.28;66.39;100358.72;4998572;28;20030;-93
2022/06/28 03:32:48;;;;;;;2.33;1.13;;;;;;;17.33;66.25;100362.78;4978169;28;20038;-93
2022/06/28 03:35:14;;;;;;;2.10;1.00;;;;;;;17.31;66.54;100365.66;4984809;28;20026;-93
2022/06/28 03:37:39;;;;;;;3.38;1.42;;;;;;;17.29;66.17;100359.59;4996136;28;20415;-92
2022/06/28 03:40:05;;;;;;;1.75;1.10;;;;;;;17.22;65.82;100364.84;4983598;28;20023;-92
2022/06/28 03:42:30;;;;;;;3.15;1.30;;;;;;;17.18;66.24;100371.59;4979275;28;20026;-92
2022/06/28 03:44:56;;;;;;;1.13;0.80;;;;;;;17.19;66.87;100373.28;4996750;28;20042;-93
2022/06/28 03:47:21;;;;;;;1.80;1.02;;;;;;;17.27;66.17;100383.25;4995863;28;20389;-92
2022/06/28 03:49:49;;;;;;;1.60;1.00;;;;;;;17.22;65.66;100385.59;4982601;28;20081;-92
2022/06/28 03:52:15;;;;;;;2.40;1.25;;;;;;;17.14;66.15;100372.94;5006618;28;20026;-92
2022/06/28 03:54:40;;;;;;;2.30;1.05;;;;;;;17.14;65.83;100378.34;4998895;28;20042;-92
2022/06/28 03:57:06;;;;;;;2.13;0.95;;;;;;;17.12;66.99;100382.25;4990535;28;20033;-93
2022/06/28 03:59:31;;;;;;;2.33;0.95;;;;;;;17.07;66.08;100387.31;4991874;28;20080;-93
2022/06/28 04:01:57;;;;;;;2.22;1.25;;;;;;;17.05;66.13;100381.22;4984668;28;20030;-93
2022/06/28 04:04:22;;;;;;;2.25;1.25;;;;;;;17.05;66.12;100384.78;4997487;28;20384;-91
2022/06/28 04:06:47;;;;;;;2.35;1.30;;;;;;;17.06;66.40;100381.06;4995984;28;20037;-91
2022/06/28 04:09:13;;;;;;;3.13;1.60;;;;;;;17.05;66.20;100379.38;4995951;28;20079;-91
2022/06/28 04:11:38;;;;;;;3.35;1.48;;;;;;;17.03;66.46;100385.94;4979348;28;20116;-91
2022/06/28 04:14:03;;;;;;;4.90;1.60;;;;;;;17.03;66.99;100380.53;4982795;28;20030;-91
2022/06/28 04:16:29;;;;;;;2.00;1.45;;;;;;;17.04;67.16;100391.19;4981514;28;20032;-91
2022/06/28 04:18:54;;;;;;;2.88;1.20;;;;;;;17.05;66.69;100395.59;4977577;28;20382;-91
2022/06/28 04:21:20;;;;;;;1.95;1.20;;;;;;;17.09;67.15;100396.09;4977625;28;20018;-90
2022/06/28 04:23:45;;;;;;;3.50;1.42;;;;;;;17.06;67.32;100386.47;4995088;28;20045;-91
2022/06/28 04:26:11;;;;;;;3.53;1.30;;;;;;;17.06;67.18;100386.47;4980841;28;20049;-91
2022/06/28 04:28:36;;;;;;;2.22;1.20;;;;;;;17.11;67.34;100384.09;4977225;28;20041;-91
2022/06/28 04:31:02;;;;;;;1.55;1.08;;;;;;;17.17;67.50;100387.97;4979992;28;20113;-91
2022/06/28 04:33:28;;;;;;;1.73;1.00;;;;;;;17.18;68.01;100386.97;4980831;28;20021;-90
2022/06/28 04:35:53;;;;;;;2.13;1.10;;;;;;;17.19;68.48;100391.34;4983133;28;20061;-91
2022/06/28 04:38:19;;;;;;;2.92;1.60;;;;;;;17.13;67.86;100386.63;4978893;28;20460;-91
2022/06/28 04:40:44;;;;;;;1.90;1.10;;;;;;;17.17;68.22;100394.22;4981096;28;20037;-90
2022/06/28 04:43:10;;;;;;;1.70;1.15;;;;;;;17.21;68.83;100383.91;4996338;28;20461;-90
2022/06/28 04:45:35;;;;;;;1.42;1.17;;;;;;;17.18;68.18;100393.22;4992848;28;20076;-91
2022/06/28 04:48:01;;;;;;;1.90;1.08;;;;;;;17.21;68.42;100389.31;4980491;28;20376;-90
2022/06/28 04:50:26;;;;;;;2.03;1.30;;;;;;;17.16;68.48;100395.25;4981382;28;20029;-90
2022/06/28 04:52:51;;;;;;;3.75;1.33;;;;;;;17.20;68.55;100388.47;4979582;28;20121;-90
2022/06/28 04:55:17;;;;;;;4.63;1.40;;;;;;;17.20;68.34;100393.03;4977795;28;20087;-91
2022/06/28 04:57:43;;;;;;;2.53;1.13;;;;;;;17.21;68.04;100381.22;4980291;28;20030;-90
2022/06/28 05:00:10;;;;;;;3.28;1.23;;;;;;;17.21;69.12;100379.34;4976090;28;20033;-91
2022/06/28 05:02:36;;;;;;;1.88;1.48;;;;;;;17.23;69.25;100388.16;4981375;28;20041;-90
2022/06/28 05:05:03;;;;;;;1.55;1.00;;;;;;;17.25;69.45;100387.97;4979463;28;20503;-90
2022/06/28 05:07:29;;;;;;;2.78;1.10;;;;;;;17.24;69.71;100384.41;4976593;28;20033;-91
2022/06/28 05:09:54;;;;;;;2.05;0.95;;;;;;;17.25;69.89;100380.72;4979503;28;20026;-90
2022/06/28 05:12:19;;;;;;;2.15;1.02;;;;;;;17.27;69.45;100381.38;4996668;28;20080;-91
2022/06/28 05:14:45;;;;;;;2.88;1.00;;;;;;;17.30;69.88;100385.59;4991899;28;20081;-91
2022/06/28 05:17:10;;;;;;;3.20;1.20;;;;;;;17.31;69.50;100385.44;4977446;28;20036;-91
2022/06/28 05:19:35;;;;;;;2.40;1.35;;;;;;;17.30;69.47;100383.75;4979416;28;20031;-91
2022/06/28 05:22:01;;;;;;;4.22;1.15;;;;;;;17.31;69.81;100379.19;4979623;28;20017;-91
2022/06/28 05:24:26;;;;;;;3.38;1.48;;;;;;;17.29;69.09;100379.34;4977450;28;20504;-90
2022/06/28 05:26:51;;;;;;;2.55;1.10;;;;;;;17.31;68.77;100365.66;4996125;28;20026;-90
2022/06/28 05:29:17;;;;;;;2.10;1.00;;;;;;;17.37;68.45;100366.81;4977246;28;20046;-90
2022/06/28 05:31:42;;;;;;;2.63;1.05;;;;;;;17.40;68.35;100367.31;4974954;28;20034;-90
2022/06/28 05:34:08;;;;;;;3.08;1.15;;;;;;;17.48;68.26;100364.59;4979635;28;20443;-91
2022/06/28 05:36:33;;;;;;;3.10;1.13;;;;;;;17.54;67.79;100363.94;4977433;28;20030;-91
2022/06/28 05:38:59;;;;;;;2.78;1.17;;;;;;;17.50;67.63;100365.31;4997837;28;20018;-91
2022/06/28 05:41:24;;;;;;;1.08;0.90;;;;;;;17.50;67.65;100364.44;4992832;28;20049;-91
2022/06/28 05:43:50;;;;;;;2.22;1.10;;;;;;;17.46;67.84;100355.81;4981376;28;20146;-91
2022/06/28 05:46:15;;;;;;;2.67;1.10;;;;;;;17.53;67.70;100354.16;4977400;28;20041;-91
2022/06/28 05:48:40;;;;;;;2.53;1.10;;;;;;;17.49;67.79;100351.94;4991297;28;20065;-91
2022/06/28 05:51:06;;;;;;;2.78;1.02;;;;;;;17.45;67.50;100359.53;4974801;28;20428;-91
2022/06/28 05:53:31;;;;;;;2.78;1.00;;;;;;;17.51;67.63;100356.19;4976442;28;20206;-91
2022/06/28 05:55:58;;;;;;;3.22;1.00;;;;;;;17.47;67.38;100356.66;4975462;28;20400;-90
2022/06/28 05:58:23;;;;;;;3.33;0.90;;;;;;;17.44;68.35;100352.44;4991073;28;20022;-90
2022/06/28 06:00:49;;;;;;;3.03;0.85;;;;;;;17.42;68.72;100345.53;4990842;28;20029;-91
2022/06/28 06:03:15;;;;;;;1.73;1.02;;;;;;;17.38;68.50;100339.63;4995020;28;20026;-90
2022/06/28 06:05:40;;;;;;;2.33;1.00;;;;;;;17.42;68.36;100350.94;4977463;28;20034;-91
2022/06/28 06:08:07;;;;;;;3.53;1.17;;;;;;;17.41;68.17;100352.78;4976088;28;20186;-90
2022/06/28 06:10:32;;;;;;;2.33;0.98;;;;;;;17.43;68.66;100353.47;4975589;28;20122;-90
2022/06/28 06:12:58;;;;;;;2.88;1.17;;;;;;;17.44;67.68;100355.16;4979997;28;20392;-91
2022/06/28 06:15:23;;;;;;;1.45;1.10;;;;;;;17.36;68.94;100362.44;4977912;28;20033;-90
2022/06/28 06:17:48;;;;;;;2.72;1.00;;;;;;;17.33;69.04;100362.78;4973334;28;20037;-91
2022/06/28 06:20:14;;;;;;;2.15;1.20;;;;;;;17.42;68.50;100364.44;4982046;28;20032;-90
2022/06/28 06:22:39;;;;;;;3.47;1.10;;;;;;;17.44;68.21;100365.13;4975950;28;20508;-90
2022/06/28 06:25:05;;;;;;;2.92;1.20;;;;;;;17.38;68.62;100360.41;4972122;28;20089;-90
2022/06/28 06:27:30;;;;;;;4.57;1.08;;;;;;;17.43;68.80;100364.28;4974578;28;20101;-90
2022/06/28 06:29:56;;;;;;;2.08;0.77;;;;;;;17.47;69.41;100362.91;4978070;28;20122;-90
2022/06/28 06:32:21;;;;;;;4.80;1.23;;;;;;;17.46;68.13;100360.38;4981321;28;20065;-90
2022/06/28 06:34:46;;;;;;;2.17;1.02;;;;;;;17.37;68.11;100356.00;4998307;28;20022;-90
2022/06/28 06:37:12;;;;;;;3.28;0.98;;;;;;;17.34;68.29;100361.75;4981171;28;20019;-90
2022/06/28 06:39:37;;;;;;;2.67;0.93;;;;;;;17.31;68.03;100361.09;4984796;28;20030;-90
2022/06/28 06:42:03;;;;;;;4.50;1.10;;;;;;;17.31;67.48;100365.66;4982561;28;20481;-90
2022/06/28 06:44:28;;;;;;;2.63;0.90;;;;;;;17.34;68.04;100370.72;4983384;28;20480;-90
2022/06/28 06:46:55;;;;;;;2.78;0.70;;;;;;;17.37;67.83;100373.09;4982909;28;20112;-91
2022/06/28 06:49:20;;;;;;;0.95;0.70;;;;;;;17.48;67.92;100383.53;4981251;28;20036;-90
2022/06/28 06:51:47;;;;;;;1.02;0.70;;;;;;;17.66;67.31;100380.66;4978635;28;20034;-90
2022/06/28 06:54:13;;;;;;;4.35;0.95;;;;;;;17.51;67.20;100379.69;4975838;28;20026;-90
2022/06/28 06:56:40;;;;;;;1.75;0.70;;;;;;;17.53;66.20;100381.19;4975352;28;20084;-90
2022/06/28 06:59:07;;;;;;;2.05;0.80;;;;;;;17.44;66.46;100382.19;4980944;28;20072;-91
2022/06/28 07:01:33;;;;;;;2.50;0.70;;;;;;;17.40;65.83;100388.13;4975860;28;20044;-90
2022/06/28 07:03:58;;;;;;;1.58;0.73;;;;;;;17.47;66.33;100387.25;4979043;28;20076;-90
2022/06/28 07:06:24;;;;;;;2.63;0.90;;;;;;;17.44;66.54;100384.91;4975829;28;20042;-90
2022/06/28 07:08:50;;;;;;;1.30;0.70;;;;;;;17.39;66.25;100383.72;4997993;28;20023;-90
2022/06/28 07:11:15;;;;;;;3.47;0.95;;;;;;;17.40;66.61;100386.25;4981056;28;20037;-90
2022/06/28 07:13:40;;;;;;;3.10;1.50;;;;;;;17.39;67.22;100389.97;4979940;28;20056;-90
2022/06/28 07:16:06;;;;;;;4.78;1.10;;;;;;;17.41;66.32;100387.09;4986116;28;20080;-89
2022/06/28 07:18:31;;;;;;;4.40;1.65;;;;;;;17.40;66.66;100391.66;4976800;28;20037;-89
2022/06/28 07:20:57;;;;;;;1.83;0.88;;;;;;;17.41;67.21;100376.28;4984192;28;20105;-88
2022/06/28 07:23:23;;;;;;;2.75;0.88;;;;;;;17.46;66.60;100380.16;4976406;28;20073;-88
2022/06/28 07:25:48;;;;;;;2.42;0.90;;;;;;;17.53;66.62;100372.22;4977574;28;20034;-88
2022/06/28 07:28:13;;;;;;;3.03;0.70;;;;;;;17.54;66.71;100377.47;4979856;28;20057;-88
2022/06/28 07:30:39;;;;;;;1.33;0.70;;;;;;;17.55;66.97;100379.16;4976569;28;20038;-89
2022/06/28 07:33:04;;;;;;;4.53;0.90;;;;;;;17.58;67.32;100383.38;4975875;28;20551;-88
2022/06/28 07:35:30;;;;;;;1.33;0.65;;;;;;;17.64;67.28;100382.69;4974585;28;20041;-88
2022/06/28 07:37:55;;;;;;;1.40;0.80;;;;;;;17.71;66.81;100378.28;4981859;28;20030;-89
2022/06/28 07:40:20;;;;;;;1.83;0.70;;;;;;;17.71;67.26;100382.84;4977478;28;20033;-89
2022/06/28 07:42:46;;;;;;;1.50;0.77;;;;;;;17.76;66.67;100372.34;4980018;28;20041;-89
2022/06/28 07:45:13;;;;;;;1.88;0.70;;;;;;;17.69;66.53;100383.03;4979383;28;20026;-89
2022/06/28 07:47:38;;;;;;;2.05;0.70;;;;;;;17.69;66.59;100380.31;4984629;28;20508;-88
2022/06/28 07:52:48;;;;;;;2.63;0.98;;;;;;;17.72;66.21;100377.28;4996296;28;20089;-89
2022/06/28 07:55:13;;;;;;;2.80;0.90;;;;;;;17.80;66.55;100373.69;4982094;28;20034;-89
2022/06/28 07:57:39;;;;;;;2.08;0.60;;;;;;;18.03;67.84;100366.53;4982477;28;20029;-89
2022/06/28 08:00:10;;;;;;;1.48;0.98;;;;;;;18.03;66.90;100368.38;4979701;28;20328;-88
2022/06/28 08:02:36;;;;;;;1.25;0.65;;;;;;;18.02;67.13;100372.13;4980060;28;20119;-88
2022/06/28 08:05:02;;;;;;;2.22;0.80;;;;;;;17.94;66.85;100364.84;4980294;28;20038;-89
2022/06/28 08:07:27;;;;;;;4.28;0.80;;;;;;;17.90;66.36;100367.06;4979554;28;20034;-89
2022/06/28 08:09:53;;;;;;;2.13;0.80;;;;;;;17.91;66.25;100360.63;4980990;28;20026;-89
2022/06/28 08:15:23;;;;;;;1.40;0.70;;;;;;;18.01;66.52;100356.88;4990064;28;20100;-89
2022/06/28 08:17:48;;;;;;;3.05;0.80;;;;;;;18.08;66.18;100355.16;4982635;28;20026;-89
2022/06/28 08:20:14;;;;;;;3.55;0.80;;;;;;;18.10;65.25;100350.41;4978552;28;20037;-89
2022/06/28 08:22:39;;;;;;;1.25;0.80;;;;;;;18.17;65.72;100354.09;4980498;28;20054;-89
2022/06/28 08:25:05;;;;;;;1.95;0.70;;;;;;;18.10;65.25;100345.00;4974647;28;20472;-89
2022/06/28 08:27:31;;;;;;;1.90;0.60;;;;;;;18.11;64.85;100347.53;4979764;28;20204;-89
2022/06/28 08:29:56;;;;;;;0.82;0.50;;;;;;;18.14;65.17;100349.03;4982580;28;20177;-88
2022/06/28 08:32:23;;;;;;;1.75;0.70;;;;;;;18.09;64.35;100341.44;4979500;28;20107;-89
2022/06/28 08:34:49;;;;;;;1.52;0.80;;;;;;;18.11;64.61;100343.97;4977657;28;20034;-88
2022/06/28 08:37:14;;;;;;;2.58;0.90;;;;;;;18.12;65.12;100346.50;4979488;28;20033;-90
2022/06/28 08:39:40;;;;;;;2.13;1.13;;;;;;;18.11;65.08;100339.41;4994659;28;20042;-89
2022/06/28 08:42:06;;;;;;;2.08;1.10;;;;;;;18.11;64.53;100339.41;4978574;28;20155;-89
2022/06/28 08:44:34;;;;;;;1.42;0.80;;;;;;;18.15;64.95;100340.75;4979516;28;20034;-89
2022/06/28 08:47:00;;;;;;;2.20;1.13;;;;;;;18.17;65.43;100340.56;4979782;28;20050;-88
2022/06/28 08:49:41;;;;;;;2.33;0.90;;;;;;;18.13;64.25;100333.81;4979760;28;20042;-89
2022/06/28 08:52:08;;;;;;;1.65;0.80;;;;;;;18.10;63.39;100323.34;4995385;28;20053;-88
2022/06/28 08:54:34;;;;;;;2.63;0.98;;;;;;;18.13;64.58;100325.69;4977056;28;20022;-88
2022/06/28 08:57:00;;;;;;;3.47;0.98;;;;;;;18.15;64.38;100323.66;4979636;28;20486;-88
2022/06/28 08:59:26;;;;;;;2.95;1.23;;;;;;;18.17;64.90;100319.75;4982405;28;20022;-89
2022/06/28 09:01:51;;;;;;;2.80;0.80;;;;;;;18.17;65.01;100319.75;4996217;28;20378;-88
2022/06/28 09:04:17;;;;;;;2.95;1.10;;;;;;;18.17;65.01;100314.34;4975358;28;20027;-88
2022/06/28 09:06:42;;;;;;;2.50;0.82;;;;;;;18.17;64.83;100310.78;4974627;28;20038;-89
2022/06/28 09:09:07;;;;;;;2.28;0.90;;;;;;;18.16;64.17;100304.53;4974619;28;20180;-88
2022/06/28 09:11:38;;;;;;;3.38;1.13;;;;;;;18.18;63.65;100310.59;4979634;28;20360;-88
2022/06/28 09:14:19;;;;;;;0.90;0.70;;;;;;;18.24;63.81;100304.47;4994700;28;20206;-88
2022/06/28 09:16:44;;;;;;;1.25;1.00;;;;;;;18.28;63.09;100299.53;4981979;28;20424;-87
2022/06/28 09:19:11;;;;;;;3.20;1.00;;;;;;;18.33;62.41;100294.44;4978302;28;20030;-88
2022/06/28 09:24:24;;;;;;;2.03;0.70;;;;;;;18.33;60.47;100296.28;5369934;22;20087;-88
2022/06/28 09:26:54;;;;;;;2.67;0.70;;;;;;;18.38;60.75;100297.44;4968296;28;20026;-88
2022/06/28 09:29:19;;;;;;;1.25;0.75;;;;;;;18.41;61.36;100299.78;4968427;28;20053;-89
2022/06/28 09:31:44;;;;;;;2.50;0.80;;;;;;;18.35;59.91;100292.38;4966647;28;20477;-89
2022/06/28 09:34:11;;;;;;;2.05;0.85;;;;;;;18.34;59.69;100290.69;4967985;28;20101;-89
2022/06/28 09:36:38;;;;;;;1.77;0.70;;;;;;;18.40;59.82;100291.84;4968199;28;20046;-89
2022/06/28 09:39:14;;;;;;;1.20;0.68;;;;;;;18.45;60.19;100287.59;4968815;28;20026;-89
2022/06/28 09:42:08;;;;;;;0.98;0.60;;;;;;;18.48;61.39;100280.97;4968267;28;20121;-89
2022/06/28 09:44:33;;;;;;;1.85;0.60;;;;;;;18.58;61.78;100283.44;4982044;28;20048;-89
2022/06/28 09:46:59;;;;;;;3.17;0.90;;;;;;;18.64;60.68;100283.56;4970645;28;20031;-89
2022/06/28 09:49:32;;;;;;;1.58;0.70;;;;;;;18.62;59.82;100287.50;4983934;28;20117;-89
2022/06/28 09:51:59;;;;;;;1.13;0.55;;;;;;;18.58;59.08;100273.44;4984779;28;20034;-89
2022/06/28 09:54:31;;;;;;;1.05;0.70;;;;;;;18.55;58.91;100276.50;4980261;28;20041;-89
2022/06/28 09:56:57;;;;;;;1.35;0.70;;;;;;;18.58;59.55;100268.03;4967494;28;20669;-90
2022/06/28 09:59:30;;;;;;;1.85;0.70;;;;;;;18.64;59.08;100269.19;4967434;28;20105;-89
2022/06/28 10:01:56;;;;;;;3.40;0.60;;;;;;;18.69;58.58;100267.63;4967989;28;20502;-88
2022/06/28 10:04:26;;;;;;;0.80;0.50;;;;;;;18.66;57.52;100259.00;4967419;28;20037;-89
2022/06/28 10:06:52;;;;;;;1.25;0.60;;;;;;;18.64;58.09;100261.06;4967790;28;20484;-89
2022/06/28 10:09:19;;;;;;;2.25;0.60;;;;;;;18.59;56.90;100252.59;4967304;28;20042;-89
2022/06/28 10:17:33;;;;;;;2.75;0.60;;;;;;;18.67;58.02;100239.03;4983419;28;20388;-89
2022/06/28 10:20:00;;;;;;;1.50;0.80;;;;;;;18.68;58.45;100230.72;4987784;28;20062;-88
2022/06/28 10:22:26;;;;;;;1.42;0.63;;;;;;;18.74;58.96;100232.69;4972648;28;20380;-90
2022/06/28 10:24:53;;;;;;;2.50;0.88;;;;;;;18.79;57.79;100224.00;4989205;28;20050;-89
2022/06/28 10:27:19;;;;;;;1.45;0.63;;;;;;;18.77;58.34;100228.75;4972102;28;20480;-89
2022/06/28 10:30:08;;;;;;;1.73;0.80;;;;;;;18.79;58.33;100237.53;4986816;28;20026;-89
2022/06/28 10:32:50;;;;;;;1.85;0.50;;;;;;;18.82;58.90;100226.34;4989063;28;20034;-89
2022/06/28 10:35:28;;;;;;;2.85;1.00;;;;;;;18.92;59.48;100229.66;4971806;28;20488;-89
2022/06/28 10:38:09;;;;;;;0.77;0.60;;;;;;;18.93;59.87;100225.91;4987215;28;20031;-89
2022/06/28 10:40:38;;;;;;;1.52;0.60;;;;;;;18.94;59.35;100211.31;4987092;28;20033;-89
2022/06/28 10:43:04;;;;;;;1.15;0.50;;;;;;;18.97;59.79;100218.25;4975655;28;20117;-90
2022/06/28 10:46:04;;;;;;;1.48;0.60;;;;;;;18.99;60.27;100206.19;4977127;28;20088;-89
2022/06/28 10:48:30;;;;;;;1.73;0.70;;;;;;;19.02;59.90;100213.94;4991801;28;20133;-89
2022/06/28 10:50:57;;;;;;;2.75;0.85;;;;;;;19.05;60.46;100210.88;4976963;28;20493;-88
2022/06/28 10:53:24;;;;;;;1.25;0.77;;;;;;;19.07;60.31;100211.53;4975855;28;20037;-89
2022/06/28 10:56:13;;;;;;;1.65;0.70;;;;;;;19.09;60.50;100206.75;4986514;28;20026;-89
2022/06/28 10:58:53;;;;;;;2.63;0.90;;;;;;;19.13;60.96;100202.63;4994032;28;20092;-89
2022/06/28 11:01:18;;;;;;;1.83;0.60;;;;;;;19.12;59.35;100197.41;4992248;28;20500;-91
2022/06/28 11:04:18;;;;;;;1.95;0.60;;;;;;;19.10;59.68;100199.47;4976302;28;20023;-89
2022/06/28 11:06:53;;;;;;;1.73;0.80;;;;;;;19.09;59.92;100195.91;4998896;28;20061;-89
2022/06/28 11:09:18;;;;;;;1.55;0.90;;;;;;;19.16;60.19;100196.00;4969893;28;20030;-89
2022/06/28 11:12:13;;;;;;;2.33;0.75;;;;;;;19.18;60.98;100183.94;4991571;28;20034;-89
2022/06/28 11:14:55;;;;;;;1.85;0.57;;;;;;;19.22;60.68;100184.41;4976150;28;20045;-89
2022/06/28 11:17:32;;;;;;;1.23;0.65;;;;;;;19.23;59.78;100183.38;4973396;28;20142;-89
2022/06/28 11:20:04;;;;;;;1.52;0.73;;;;;;;19.27;61.01;100181.13;4974525;28;20046;-89
2022/06/28 11:22:37;;;;;;;1.58;0.70;;;;;;;19.31;60.95;100177.00;4973739;28;20030;-89
2022/06/28 11:25:05;;;;;;;1.05;0.60;;;;;;;19.31;60.58;100169.69;4985089;28;20081;-89
2022/06/28 11:27:32;;;;;;;1.53;0.70;;;;;;;19.30;59.98;100173.44;4986910;28;20026;-89
2022/06/28 11:30:00;;;;;;;3.03;0.77;;;;;;;19.28;58.52;100166.53;4970665;28;20023;-89
2022/06/28 11:32:29;;;;;;;3.42;0.93;;;;;;;19.26;58.48;100172.13;4989071;28;20037;-88
2022/06/28 11:35:06;;;;;;;2.05;0.85;;;;;;;19.35;58.54;100156.59;4989554;28;20047;-88
2022/06/28 11:37:46;;;;;;;2.05;0.80;;;;;;;19.44;58.72;100160.91;4990811;28;20043;-89
2022/06/28 11:40:11;;;;;;;4.45;1.02;;;;;;;19.48;57.15;100148.66;4990028;28;20034;-91
2022/06/28 11:42:37;;;;;;;1.02;0.70;;;;;;;19.50;57.75;100152.00;4972484;28;20062;-91
2022/06/28 11:45:02;;;;;;;2.13;0.73;;;;;;;19.58;57.94;100151.91;4975340;28;20026;-90